Time;durP1;ratioP1;P1;durP2;ratioP2;P2;SDS_P1;SDS_P2;PMS_P1;PMS_P2;Temp;Humidity;BMP_temperature;BMP_pressure;BME280_temperature;BME280_humidity;BME280_pressure;Samples;Min_cycle;Max_cycle;Signal;HPM_P1;HPM_P2
2021/10/08 00:02:24;;;;;;;19.25;8.68;;;21.20;63.20;;;;;;5010220;28;20500;-63
2021/10/08 00:04:52;;;;;;;16.23;8.00;;;21.20;63.00;;;;;;5012282;28;20510;-60
2021/10/08 00:07:19;;;;;;;22.20;9.13;;;21.20;63.30;;;;;;5010610;28;20105;-62
2021/10/08 00:09:47;;;;;;;13.63;7.25;;;21.10;64.30;;;;;;4995129;28;20486;-61
2021/10/08 00:12:14;;;;;;;19.23;8.65;;;21.10;63.90;;;;;;5007421;28;20033;-61
2021/10/08 00:14:41;;;;;;;15.57;8.50;;;21.10;64.20;;;;;;5012639;28;20037;-64
2021/10/08 00:17:10;;;;;;;19.25;7.88;;;21.10;64.50;;;;;;5007247;28;20539;-61
2021/10/08 00:19:38;;;;;;;17.77;8.15;;;21.10;64.50;;;;;;4994752;28;20449;-64
2021/10/08 00:22:06;;;;;;;15.30;7.05;;;21.10;64.50;;;;;;5009541;28;20114;-62
2021/10/08 00:24:33;;;;;;;13.25;7.35;;;21.20;64.50;;;;;;4995564;28;20476;-60
2021/10/08 00:27:01;;;;;;;15.48;8.13;;;21.10;64.40;;;;;;5011520;28;20106;-62
2021/10/08 00:29:28;;;;;;;18.27;7.53;;;21.20;65.00;;;;;;5012474;28;20030;-62
2021/10/08 00:31:56;;;;;;;15.02;7.22;;;21.20;64.50;;;;;;4990776;28;20022;-56
2021/10/08 00:34:23;;;;;;;16.48;7.35;;;21.30;64.50;;;;;;5011715;28;20376;-60
2021/10/08 00:36:51;;;;;;;17.75;7.03;;;21.30;64.30;;;;;;5011821;28;20025;-61
2021/10/08 00:39:18;;;;;;;15.98;6.75;;;21.30;64.00;;;;;;5011197;28;20170;-56
2021/10/08 00:41:46;;;;;;;14.55;6.55;;;21.40;64.50;;;;;;5008683;28;20033;-60
2021/10/08 00:44:13;;;;;;;16.95;7.60;;;21.30;63.90;;;;;;5011856;28;20041;-58
2021/10/08 00:46:42;;;;;;;14.23;6.32;;;21.30;64.10;;;;;;5011740;28;20109;-60
2021/10/08 00:49:09;;;;;;;14.10;6.43;;;21.30;63.80;;;;;;5010776;28;20030;-61
2021/10/08 00:51:36;;;;;;;14.27;6.45;;;21.30;64.00;;;;;;5007048;28;20054;-59
2021/10/08 00:54:04;;;;;;;15.30;6.88;;;21.30;64.60;;;;;;5011406;28;20605;-66
2021/10/08 00:56:32;;;;;;;11.80;6.03;;;21.30;64.50;;;;;;5012052;28;20056;-62
2021/10/08 00:59:00;;;;;;;13.20;6.10;;;21.40;64.50;;;;;;5010682;28;20026;-64
2021/10/08 01:01:28;;;;;;;18.00;6.68;;;21.50;64.30;;;;;;5003088;28;20026;-69
2021/10/08 01:04:04;;;;;;;15.75;5.95;;;21.50;63.70;;;;;;5011141;28;20032;-63
2021/10/08 01:06:31;;;;;;;14.25;6.25;;;21.60;63.40;;;;;;4995553;28;20476;-64
2021/10/08 01:08:59;;;;;;;17.48;5.13;;;21.70;63.40;;;;;;5011660;28;20022;-62
2021/10/08 01:11:26;;;;;;;13.90;6.05;;;21.70;63.10;;;;;;5011101;28;20030;-65
2021/10/08 01:13:54;;;;;;;15.98;5.95;;;21.80;63.10;;;;;;5011608;28;20026;-66
2021/10/08 01:16:24;;;;;;;9.27;5.68;;;21.80;63.10;;;;;;4994661;28;20464;-61
2021/10/08 01:18:51;;;;;;;13.43;5.78;;;21.80;63.40;;;;;;5011864;28;20030;-63
2021/10/08 01:21:19;;;;;;;14.57;4.90;;;21.90;63.40;;;;;;5011410;28;20037;-63
2021/10/08 01:23:46;;;;;;;17.98;5.00;;;21.90;62.80;;;;;;5011610;28;20025;-61
2021/10/08 01:26:14;;;;;;;19.13;5.65;;;21.90;62.80;;;;;;5011654;28;20110;-66
2021/10/08 01:28:42;;;;;;;12.23;6.28;;;21.90;63.10;;;;;;5005088;28;20018;-62
2021/10/08 01:31:09;;;;;;;12.43;5.05;;;22.00;63.30;;;;;;5009712;28;20041;-55
2021/10/08 01:33:36;;;;;;;12.25;5.25;;;22.00;63.20;;;;;;5009476;28;20376;-58
2021/10/08 01:36:04;;;;;;;9.90;4.32;;;22.00;62.70;;;;;;5009110;28;20521;-56
2021/10/08 01:38:31;;;;;;;13.60;5.28;;;22.10;62.70;;;;;;5009384;28;20057;-57
2021/10/08 01:40:59;;;;;;;13.70;5.10;;;22.10;62.60;;;;;;5009638;28;20042;-60
2021/10/08 01:43:26;;;;;;;11.18;5.10;;;22.10;62.60;;;;;;5005125;28;20113;-62
2021/10/08 01:45:53;;;;;;;11.20;4.93;;;22.00;63.00;;;;;;5005463;28;20022;-62
2021/10/08 01:48:21;;;;;;;13.27;4.55;;;22.00;63.20;;;;;;5009355;28;20526;-63
2021/10/08 01:50:48;;;;;;;10.50;4.28;;;21.90;63.10;;;;;;5009698;28;20056;-64
2021/10/08 01:53:16;;;;;;;12.48;4.53;;;22.00;62.90;;;;;;5009286;28;20034;-61
2021/10/08 01:55:43;;;;;;;10.90;4.20;;;22.00;63.20;;;;;;5005753;28;20122;-63
2021/10/08 01:58:11;;;;;;;13.70;4.88;;;22.00;63.00;;;;;;5009494;28;20041;-60
2021/10/08 02:00:38;;;;;;;9.98;4.35;;;22.00;63.30;;;;;;5010302;28;20075;-63
2021/10/08 02:03:05;;;;;;;11.43;4.28;;;21.90;63.20;;;;;;5010114;28;20087;-65
2021/10/08 02:05:33;;;;;;;14.30;4.65;;;22.00;63.60;;;;;;4986926;28;20125;-58
2021/10/08 02:08:00;;;;;;;14.60;5.07;;;22.00;63.40;;;;;;5005206;28;20071;-62
2021/10/08 02:10:27;;;;;;;12.23;4.00;;;22.00;63.20;;;;;;5009154;28;20099;-62
2021/10/08 02:12:55;;;;;;;13.02;4.60;;;21.90;63.80;;;;;;5009725;28;20705;-64
2021/10/08 02:15:22;;;;;;;10.65;4.70;;;21.90;63.80;;;;;;5005773;28;20068;-58
2021/10/08 02:17:49;;;;;;;10.77;4.55;;;21.90;63.50;;;;;;5009896;28;20540;-65
2021/10/08 02:20:17;;;;;;;11.65;4.20;;;21.90;63.50;;;;;;5008840;28;20026;-60
2021/10/08 02:22:46;;;;;;;11.75;5.13;;;21.90;63.40;;;;;;5008811;28;20064;-62
2021/10/08 02:25:14;;;;;;;9.10;4.10;;;22.00;63.90;;;;;;5006080;28;20029;-59
2021/10/08 02:27:42;;;;;;;12.98;4.13;;;22.00;63.30;;;;;;5009313;28;20492;-55
2021/10/08 02:30:10;;;;;;;11.70;4.10;;;22.00;63.70;;;;;;5008974;28;20060;-56
2021/10/08 02:32:37;;;;;;;13.40;4.03;;;22.10;63.50;;;;;;5006080;28;20022;-61
2021/10/08 02:35:05;;;;;;;10.88;3.97;;;22.10;63.20;;;;;;5004579;28;20047;-60
2021/10/08 02:37:33;;;;;;;13.70;4.45;;;22.20;63.20;;;;;;5009110;28;20441;-60
2021/10/08 02:40:00;;;;;;;9.43;3.70;;;22.20;63.20;;;;;;5008780;28;20025;-55
2021/10/08 02:42:28;;;;;;;11.93;4.28;;;22.10;63.30;;;;;;5009760;28;20022;-51
2021/10/08 02:44:55;;;;;;;14.93;4.78;;;22.20;63.70;;;;;;5005208;28;20083;-57
2021/10/08 02:47:22;;;;;;;12.77;4.13;;;22.20;63.40;;;;;;5008568;28;20052;-56
2021/10/08 02:49:50;;;;;;;11.77;4.72;;;22.30;63.30;;;;;;5008868;28;20071;-57
2021/10/08 02:52:17;;;;;;;12.25;4.28;;;22.30;63.00;;;;;;4991633;28;20078;-56
2021/10/08 02:54:45;;;;;;;13.18;4.60;;;22.30;63.50;;;;;;5004175;28;20392;-64
2021/10/08 02:57:12;;;;;;;12.00;4.35;;;22.20;63.70;;;;;;4987456;28;20026;-64
2021/10/08 02:59:39;;;;;;;11.73;3.78;;;22.30;64.10;;;;;;5008087;28;20038;-61
2021/10/08 03:02:07;;;;;;;14.18;4.10;;;22.30;64.40;;;;;;5008669;28;20022;-62
2021/10/08 03:04:34;;;;;;;10.55;3.67;;;22.20;63.80;;;;;;5004206;28;20138;-59
2021/10/08 03:07:01;;;;;;;11.27;4.15;;;22.30;63.60;;;;;;5008827;28;20063;-57
2021/10/08 03:09:29;;;;;;;14.88;3.78;;;22.20;64.00;;;;;;5007405;28;20471;-62
2021/10/08 03:11:56;;;;;;;12.50;3.97;;;22.30;64.00;;;;;;5008254;28;20029;-59
2021/10/08 03:14:23;;;;;;;11.23;3.55;;;22.30;64.00;;;;;;5003807;28;20336;-54
2021/10/08 03:16:51;;;;;;;10.70;3.70;;;22.40;63.80;;;;;;5004813;28;20041;-60
2021/10/08 03:19:18;;;;;;;9.93;3.80;;;22.40;63.80;;;;;;5007841;28;20030;-58
2021/10/08 03:21:46;;;;;;;10.68;3.30;;;22.40;63.50;;;;;;5009664;28;20050;-62
2021/10/08 03:24:13;;;;;;;12.05;4.35;;;22.40;63.70;;;;;;5010013;28;20036;-58
2021/10/08 03:26:40;;;;;;;11.68;3.65;;;22.40;63.90;;;;;;5010229;28;20030;-61
2021/10/08 03:29:08;;;;;;;10.32;3.75;;;22.40;63.20;;;;;;5010392;28;20113;-66
2021/10/08 03:31:35;;;;;;;8.90;3.60;;;22.40;63.90;;;;;;5010173;28;20479;-62
2021/10/08 03:34:03;;;;;;;10.13;3.17;;;22.40;63.70;;;;;;5010103;28;20046;-65
2021/10/08 03:36:41;;;;;;;15.40;3.85;;;22.40;63.60;;;;;;5010422;28;20056;-65
2021/10/08 03:39:10;;;;;;;14.10;3.63;;;22.40;63.50;;;;;;5012193;28;20080;-65
2021/10/08 03:41:40;;;;;;;9.35;3.20;;;22.40;64.10;;;;;;5010032;28;20057;-67
2021/10/08 03:44:08;;;;;;;11.32;3.45;;;22.40;63.60;;;;;;5009827;28;20025;-65
2021/10/08 03:46:44;;;;;;;12.52;3.85;;;22.50;63.50;;;;;;5010350;28;20440;-65
2021/10/08 03:49:13;;;;;;;12.98;3.85;;;22.40;63.70;;;;;;5009139;28;20497;-65
2021/10/08 03:51:45;;;;;;;8.52;3.70;;;22.40;63.10;;;;;;4992107;28;20026;-65
2021/10/08 03:54:16;;;;;;;10.52;3.15;;;22.50;62.90;;;;;;5009441;28;20042;-64
2021/10/08 03:56:44;;;;;;;11.15;3.13;;;22.50;63.40;;;;;;5009926;28;20037;-67
2021/10/08 03:59:12;;;;;;;10.50;3.45;;;22.40;63.60;;;;;;5009544;28;20029;-67
2021/10/08 04:01:40;;;;;;;14.50;3.05;;;22.40;63.80;;;;;;5009319;28;20495;-65
2021/10/08 04:04:08;;;;;;;12.27;3.28;;;22.40;63.90;;;;;;5009467;28;20029;-68
2021/10/08 04:06:36;;;;;;;12.68;3.70;;;22.40;63.90;;;;;;5009053;28;20539;-70
2021/10/08 04:09:05;;;;;;;12.75;3.22;;;22.40;63.00;;;;;;5009070;28;20379;-69
2021/10/08 04:11:34;;;;;;;10.80;3.20;;;22.40;63.90;;;;;;5009207;28;20083;-59
2021/10/08 04:14:01;;;;;;;7.47;2.80;;;22.30;63.80;;;;;;4991596;28;20075;-57
2021/10/08 04:16:29;;;;;;;11.45;3.80;;;22.30;63.70;;;;;;5009126;28;20413;-63
2021/10/08 04:18:56;;;;;;;10.07;3.42;;;22.30;63.80;;;;;;5008880;28;20075;-56
2021/10/08 04:21:24;;;;;;;11.93;2.95;;;22.30;63.60;;;;;;5008570;28;20030;-62
2021/10/08 04:23:51;;;;;;;11.23;3.40;;;22.30;64.20;;;;;;5009348;28;20026;-57
2021/10/08 04:26:19;;;;;;;12.10;3.17;;;22.30;64.40;;;;;;5009053;28;20623;-61
2021/10/08 04:28:46;;;;;;;10.00;3.28;;;22.20;64.30;;;;;;5009483;28;20384;-64
2021/10/08 04:31:14;;;;;;;8.52;3.35;;;22.20;64.10;;;;;;5012454;28;20032;-66
2021/10/08 04:33:43;;;;;;;9.10;3.30;;;22.20;64.50;;;;;;5012294;28;20086;-61
2021/10/08 04:36:10;;;;;;;9.15;2.70;;;22.30;64.00;;;;;;5012218;28;20029;-66
2021/10/08 04:38:38;;;;;;;10.45;3.15;;;22.30;63.90;;;;;;5012761;28;20104;-66
2021/10/08 04:41:05;;;;;;;10.00;3.40;;;22.30;64.30;;;;;;5012464;28;20030;-60
2021/10/08 04:43:32;;;;;;;14.02;3.53;;;22.30;64.10;;;;;;5012521;28;20029;-58
2021/10/08 04:46:37;;;;;;;10.05;3.58;;;22.30;63.80;;;;;;5012889;28;20396;-59
2021/10/08 04:49:05;;;;;;;10.65;3.63;;;22.30;64.10;;;;;;5007569;28;20038;-58
2021/10/08 04:51:32;;;;;;;7.15;2.65;;;22.30;63.90;;;;;;5012486;28;20413;-58
2021/10/08 04:53:59;;;;;;;13.57;3.38;;;22.30;64.00;;;;;;5012746;28;20053;-67
2021/10/08 04:56:27;;;;;;;10.27;3.55;;;22.30;64.30;;;;;;5012713;28;20037;-65
2021/10/08 04:58:55;;;;;;;10.30;2.90;;;22.30;64.00;;;;;;4994402;28;20026;-67
2021/10/08 05:01:22;;;;;;;13.77;3.25;;;22.30;64.00;;;;;;5011991;28;20062;-62
2021/10/08 05:03:49;;;;;;;12.02;3.10;;;22.30;64.10;;;;;;5011987;28;20120;-69
2021/10/08 05:06:17;;;;;;;10.48;3.40;;;22.40;64.10;;;;;;5011918;28;20022;-65
2021/10/08 05:08:44;;;;;;;9.80;3.22;;;22.30;63.90;;;;;;5011430;28;20532;-65
2021/10/08 05:11:11;;;;;;;10.00;2.63;;;22.30;63.90;;;;;;5011863;28;20041;-55
2021/10/08 05:13:39;;;;;;;11.85;3.33;;;22.40;64.00;;;;;;5011746;28;20025;-64
2021/10/08 05:16:06;;;;;;;9.18;2.72;;;22.30;63.70;;;;;;5011815;28;20105;-60
2021/10/08 05:18:34;;;;;;;57.03;8.10;;;22.30;64.00;;;;;;5011879;28;20018;-68
2021/10/08 05:21:01;;;;;;;43.30;6.22;;;22.30;63.30;;;;;;5012463;28;20026;-66
2021/10/08 05:23:29;;;;;;;26.25;5.13;;;22.20;63.00;;;;;;5011887;28;20032;-56
2021/10/08 05:25:56;;;;;;;23.90;4.50;;;22.20;62.90;;;;;;5012107;28;20022;-56
2021/10/08 05:28:26;;;;;;;21.52;4.30;;;22.20;63.20;;;;;;5012060;28;20083;-69
2021/10/08 05:30:53;;;;;;;23.02;4.13;;;22.20;62.90;;;;;;5011984;28;20515;-61
2021/10/08 05:33:21;;;;;;;17.27;4.05;;;22.20;63.30;;;;;;5010876;28;20101;-65
2021/10/08 05:35:48;;;;;;;17.58;4.38;;;22.10;63.50;;;;;;5011719;28;20030;-62
2021/10/08 05:38:16;;;;;;;14.35;4.07;;;22.10;63.90;;;;;;5011416;28;20053;-66
2021/10/08 05:40:43;;;;;;;21.42;4.07;;;22.10;64.00;;;;;;5010481;28;20026;-67
2021/10/08 05:43:11;;;;;;;19.02;3.60;;;22.00;64.20;;;;;;5012124;28;20142;-68
2021/10/08 05:45:38;;;;;;;18.25;3.55;;;22.00;64.40;;;;;;5011647;28;20398;-64
2021/10/08 05:48:05;;;;;;;17.17;3.17;;;22.00;64.40;;;;;;5011378;28;20034;-67
2021/10/08 05:50:38;;;;;;;12.18;3.83;;;22.00;64.40;;;;;;4999581;28;20068;-66
2021/10/08 05:53:11;;;;;;;20.85;4.18;;;22.00;64.60;;;;;;5005512;28;20045;-64
2021/10/08 05:55:39;;;;;;;9.70;3.03;;;22.10;64.70;;;;;;5009445;28;20488;-64
2021/10/08 05:58:16;;;;;;;11.40;3.30;;;22.00;64.60;;;;;;5006408;28;20022;-64
2021/10/08 06:00:44;;;;;;;14.32;3.50;;;22.00;64.70;;;;;;4993107;28;20414;-67
2021/10/08 06:03:12;;;;;;;17.75;4.30;;;22.00;64.80;;;;;;5008002;28;20045;-66
2021/10/08 06:05:40;;;;;;;13.80;3.88;;;22.00;64.70;;;;;;5007602;28;20524;-63
2021/10/08 06:08:09;;;;;;;19.95;4.30;;;22.10;64.80;;;;;;5010337;28;20038;-54
2021/10/08 06:10:37;;;;;;;14.32;3.97;;;22.00;64.90;;;;;;5009277;28;20526;-63
2021/10/08 06:13:05;;;;;;;12.18;3.30;;;22.00;64.60;;;;;;5010250;28;20053;-60
2021/10/08 06:15:32;;;;;;;13.88;4.22;;;22.00;64.80;;;;;;5006225;28;20034;-67
2021/10/08 06:18:00;;;;;;;12.18;2.65;;;22.00;64.70;;;;;;5005884;28;20033;-63
2021/10/08 06:20:27;;;;;;;12.95;3.17;;;22.00;64.70;;;;;;5008337;28;20052;-61
2021/10/08 06:22:55;;;;;;;10.93;2.72;;;21.90;64.70;;;;;;5009357;28;20034;-65
2021/10/08 06:25:23;;;;;;;15.77;3.40;;;21.90;65.00;;;;;;5004467;28;20068;-59
2021/10/08 06:27:53;;;;;;;9.90;3.08;;;21.90;65.20;;;;;;5010004;28;20415;-65
2021/10/08 06:30:23;;;;;;;11.68;2.97;;;21.90;65.40;;;;;;5008990;28;20125;-63
2021/10/08 06:32:52;;;;;;;14.23;3.22;;;21.80;65.50;;;;;;5010053;28;20036;-60
2021/10/08 06:35:19;;;;;;;10.25;3.00;;;21.80;65.50;;;;;;5003901;28;20129;-60
2021/10/08 06:37:47;;;;;;;13.63;3.17;;;21.80;65.70;;;;;;5009613;28;20086;-66
2021/10/08 06:40:14;;;;;;;12.60;3.00;;;21.80;65.80;;;;;;5008670;28;20018;-63
2021/10/08 06:42:42;;;;;;;10.48;2.53;;;21.80;66.00;;;;;;5009459;28;20025;-65
2021/10/08 06:45:10;;;;;;;12.25;3.05;;;21.70;66.00;;;;;;5004710;28;20109;-66
2021/10/08 06:47:37;;;;;;;9.80;3.00;;;21.70;66.20;;;;;;5009398;28;20026;-67
2021/10/08 06:50:05;;;;;;;12.70;2.92;;;21.60;66.90;;;;;;4990555;28;20034;-60
2021/10/08 06:52:33;;;;;;;8.98;2.60;;;21.60;66.40;;;;;;5008511;28;20117;-64
2021/10/08 06:55:00;;;;;;;9.38;3.10;;;21.60;66.50;;;;;;5004567;28;20084;-65
2021/10/08 06:57:28;;;;;;;13.25;3.38;;;21.60;66.50;;;;;;5008307;28;20069;-64
2021/10/08 06:59:56;;;;;;;13.10;3.28;;;21.50;67.30;;;;;;5009065;28;20045;-62
2021/10/08 07:02:23;;;;;;;10.85;3.30;;;21.50;66.90;;;;;;5008113;28;20033;-63
2021/10/08 07:04:51;;;;;;;11.50;3.15;;;21.50;67.10;;;;;;5004026;28;20026;-61
2021/10/08 07:07:19;;;;;;;8.98;2.78;;;21.50;67.10;;;;;;4990820;28;20025;-62
2021/10/08 07:09:46;;;;;;;11.48;3.65;;;21.40;67.10;;;;;;5008933;28;20048;-60
2021/10/08 07:12:14;;;;;;;11.45;3.20;;;21.40;67.10;;;;;;4988637;28;20030;-59
2021/10/08 07:14:42;;;;;;;11.10;2.47;;;21.40;67.20;;;;;;5004327;28;20029;-62
2021/10/08 07:17:10;;;;;;;11.07;2.88;;;21.40;67.30;;;;;;5007713;28;21186;-62
2021/10/08 07:19:38;;;;;;;12.23;2.92;;;21.30;67.30;;;;;;5007905;28;20030;-61
2021/10/08 07:22:05;;;;;;;11.30;2.58;;;21.30;67.50;;;;;;5007079;28;20030;-66
2021/10/08 07:24:33;;;;;;;10.18;2.70;;;21.30;67.70;;;;;;5005083;28;20026;-62
2021/10/08 07:27:00;;;;;;;11.32;4.13;;;21.30;68.00;;;;;;5008457;28;20036;-60
2021/10/08 07:29:28;;;;;;;5.82;2.03;;;21.20;68.20;;;;;;5008362;28;20514;-61
2021/10/08 07:31:55;;;;;;;9.85;3.13;;;21.20;68.00;;;;;;5008836;28;20433;-58
2021/10/08 07:34:22;;;;;;;10.20;2.42;;;21.20;68.20;;;;;;5001040;28;20030;-61
2021/10/08 07:36:50;;;;;;;8.02;2.78;;;21.10;68.10;;;;;;5008964;28;20121;-60
2021/10/08 07:39:17;;;;;;;10.05;2.83;;;21.10;68.30;;;;;;5007759;28;20030;-66
2021/10/08 07:41:45;;;;;;;8.63;2.78;;;21.10;68.60;;;;;;5008323;28;20110;-62
2021/10/08 07:44:13;;;;;;;9.73;2.78;;;21.10;68.60;;;;;;5004677;28;20403;-61
2021/10/08 07:46:40;;;;;;;9.73;3.00;;;21.10;68.50;;;;;;5008981;28;20097;-60
2021/10/08 07:49:07;;;;;;;8.63;2.70;;;21.10;68.70;;;;;;5008501;28;20030;-62
2021/10/08 07:51:35;;;;;;;10.70;3.08;;;21.00;68.70;;;;;;5008041;28;20037;-58
2021/10/08 07:54:03;;;;;;;8.63;2.70;;;21.00;69.00;;;;;;5004487;28;20065;-56
2021/10/08 07:56:30;;;;;;;8.73;3.42;;;21.00;69.10;;;;;;5008838;28;20046;-57
2021/10/08 07:58:58;;;;;;;7.07;2.80;;;21.00;69.20;;;;;;4991095;28;20105;-61
2021/10/08 08:01:25;;;;;;;7.40;2.90;;;21.00;69.30;;;;;;4990042;28;20026;-51
2021/10/08 08:03:52;;;;;;;8.38;2.80;;;21.00;69.30;;;;;;5002830;28;20061;-57
2021/10/08 08:06:23;;;;;;;10.15;2.75;;;20.90;69.30;;;;;;4994457;28;20099;-57
2021/10/08 08:08:53;;;;;;;8.65;2.83;;;20.90;69.70;;;;;;5012178;28;20022;-56
2021/10/08 08:11:23;;;;;;;9.85;3.35;;;20.90;69.50;;;;;;5011466;28;20458;-54
2021/10/08 08:13:52;;;;;;;8.73;2.55;;;20.90;69.90;;;;;;5003449;28;20054;-67
2021/10/08 08:16:19;;;;;;;14.18;3.15;;;20.90;69.70;;;;;;5012704;28;20029;-58
2021/10/08 08:18:47;;;;;;;12.38;2.72;;;20.90;70.40;;;;;;5010854;28;20042;-60
2021/10/08 08:21:14;;;;;;;12.10;3.10;;;20.90;70.20;;;;;;5010203;28;20026;-59
2021/10/08 08:23:42;;;;;;;10.85;2.78;;;20.80;70.20;;;;;;5003981;28;20154;-62
2021/10/08 08:26:09;;;;;;;7.85;2.22;;;20.90;70.30;;;;;;5011637;28;20026;-57
2021/10/08 08:28:37;;;;;;;9.60;2.45;;;20.80;70.20;;;;;;5011908;28;20461;-56
2021/10/08 08:31:04;;;;;;;8.90;2.47;;;20.80;70.20;;;;;;5010720;28;20041;-60
2021/10/08 08:33:34;;;;;;;6.85;2.47;;;20.80;70.80;;;;;;4987676;28;20274;-60
2021/10/08 08:36:01;;;;;;;7.75;2.30;;;20.80;71.00;;;;;;5010082;28;20038;-58
2021/10/08 08:38:29;;;;;;;7.90;2.05;;;20.70;70.80;;;;;;4994373;28;20029;-55
2021/10/08 08:40:58;;;;;;;7.75;2.47;;;20.80;70.90;;;;;;5010788;28;20482;-66
2021/10/08 08:43:29;;;;;;;7.78;1.80;;;20.80;71.00;;;;;;5004864;28;20468;-68
2021/10/08 08:45:57;;;;;;;10.90;3.03;;;20.80;71.10;;;;;;4992115;28;20034;-59
2021/10/08 08:48:26;;;;;;;10.85;2.80;;;20.70;71.00;;;;;;5009406;28;20384;-58
2021/10/08 08:50:53;;;;;;;10.18;2.90;;;20.70;71.00;;;;;;4990602;28;20045;-62
2021/10/08 08:53:21;;;;;;;10.55;3.10;;;20.70;71.50;;;;;;5007172;28;20038;-60
2021/10/08 08:55:52;;;;;;;13.90;4.40;;;20.70;71.60;;;;;;5005408;28;20037;-60
2021/10/08 08:58:21;;;;;;;15.40;5.30;;;20.60;71.70;;;;;;5009284;28;20022;-60
2021/10/08 09:01:03;;;;;;;32.92;14.57;;;20.60;72.00;;;;;;5007984;28;20641;-61
2021/10/08 09:03:31;;;;;;;51.83;24.85;;;20.60;73.60;;;;;;4986511;28;20495;-68
2021/10/08 09:05:59;;;;;;;87.70;41.55;;;20.60;73.70;;;;;;5006958;28;20483;-65
2021/10/08 09:08:34;;;;;;;137.48;64.82;;;20.60;73.60;;;;;;5009184;28;20036;-63
2021/10/08 09:11:07;;;;;;;193.70;94.50;;;20.60;73.40;;;;;;5009583;28;20082;-64
2021/10/08 09:13:34;;;;;;;189.23;97.45;;;20.60;73.30;;;;;;4983897;28;20061;-64
2021/10/08 09:16:04;;;;;;;193.55;97.43;;;20.60;73.40;;;;;;5008738;28;20036;-56
2021/10/08 09:18:33;;;;;;;195.50;101.15;;;20.60;73.50;;;;;;5010839;28;20033;-65
2021/10/08 09:21:08;;;;;;;226.52;109.45;;;20.60;73.60;;;;;;5009879;28;20155;-61
2021/10/08 09:23:50;;;;;;;218.23;108.00;;;20.60;74.00;;;;;;5004065;28;20589;-59
2021/10/08 09:26:24;;;;;;;227.07;112.88;;;20.60;73.80;;;;;;5008352;28;20030;-64
2021/10/08 09:28:56;;;;;;;199.43;99.68;;;20.60;73.90;;;;;;5010999;28;20064;-64
2021/10/08 09:31:43;;;;;;;187.98;96.10;;;20.50;73.70;;;;;;5009777;28;20034;-59
2021/10/08 09:34:14;;;;;;;221.50;113.68;;;20.50;73.60;;;;;;4999397;28;20022;-58
2021/10/08 09:36:45;;;;;;;216.38;110.40;;;20.50;73.70;;;;;;5006776;28;20030;-67
2021/10/08 09:43:07;;;;;;;;;;;20.50;74.00;;;;;;4964378;28;20040;-63
2021/10/08 09:45:42;;;;;;;226.38;113.82;;;20.50;74.00;;;;;;5004091;28;19906;-64
2021/10/08 09:48:12;;;;;;;221.23;111.68;;;20.50;74.20;;;;;;5010643;28;20049;-62
2021/10/08 09:50:56;;;;;;;207.55;105.70;;;20.40;74.10;;;;;;5006116;28;20122;-65
2021/10/08 09:53:24;;;;;;;190.25;105.13;;;20.40;74.10;;;;;;5003238;28;20073;-62
2021/10/08 09:55:53;;;;;;;199.18;104.55;;;20.40;74.10;;;;;;5006178;28;20392;-63
2021/10/08 09:58:24;;;;;;;203.10;105.82;;;20.40;74.10;;;;;;5010651;28;20037;-58
2021/10/08 10:01:06;;;;;;;203.02;106.88;;;20.40;74.10;;;;;;5011402;28;20021;-62
2021/10/08 10:03:34;;;;;;;207.95;105.50;;;20.40;74.10;;;;;;5011122;28;20034;-62
2021/10/08 10:06:06;;;;;;;207.27;106.32;;;20.40;74.10;;;;;;5003255;28;20095;-63
2021/10/08 10:08:37;;;;;;;202.65;107.63;;;20.40;74.30;;;;;;5010734;28;20032;-64
2021/10/08 10:11:05;;;;;;;185.52;98.93;;;20.40;74.30;;;;;;5008093;28;20037;-64
2021/10/08 10:13:34;;;;;;;188.85;100.18;;;20.30;74.30;;;;;;5009890;28;20074;-61
2021/10/08 10:16:02;;;;;;;189.07;96.60;;;20.30;74.20;;;;;;5009794;28;20026;-61
2021/10/08 10:18:31;;;;;;;195.77;97.03;;;20.30;74.20;;;;;;5010717;28;20029;-63
2021/10/08 10:20:59;;;;;;;200.75;105.72;;;20.30;74.30;;;;;;5006217;28;20038;-60
2021/10/08 10:23:28;;;;;;;182.85;99.97;;;20.30;75.10;;;;;;5010160;28;20067;-63
2021/10/08 10:25:57;;;;;;;193.40;100.35;;;20.30;74.40;;;;;;5009048;28;20026;-69
2021/10/08 10:28:24;;;;;;;191.02;101.68;;;20.30;74.40;;;;;;4992768;28;20033;-64
2021/10/08 10:30:52;;;;;;;185.82;95.90;;;20.30;74.40;;;;;;5006460;28;20607;-58
2021/10/08 10:33:29;;;;;;;186.95;96.47;;;20.20;74.40;;;;;;5010192;28;20627;-66
2021/10/08 10:36:00;;;;;;;189.02;95.47;;;20.20;74.30;;;;;;5009358;28;20038;-57
2021/10/08 10:38:39;;;;;;;186.73;97.53;;;20.20;74.50;;;;;;5012024;28;20380;-55
2021/10/08 10:41:10;;;;;;;185.30;95.85;;;20.20;74.50;;;;;;4988884;28;20041;-58
2021/10/08 10:43:50;;;;;;;178.40;93.10;;;20.20;74.60;;;;;;5003449;28;20034;-61
2021/10/08 10:52:02;;;;;;;175.68;92.13;;;20.20;74.50;;;;;;5009555;28;20037;-54
2021/10/08 10:54:35;;;;;;;169.07;94.60;;;20.20;74.60;;;;;;5013526;28;20046;-65
2021/10/08 10:57:11;;;;;;;179.18;95.72;;;20.20;74.60;;;;;;5010163;28;20037;-59
2021/10/08 10:59:42;;;;;;;172.63;90.25;;;20.20;74.50;;;;;;4992834;28;20021;-61
2021/10/08 11:02:11;;;;;;;169.48;90.47;;;20.20;74.50;;;;;;5005806;28;20556;-53
2021/10/08 11:04:54;;;;;;;176.20;91.65;;;20.20;74.50;;;;;;5009571;28;20038;-60
2021/10/08 11:07:23;;;;;;;156.15;86.90;;;20.20;74.60;;;;;;5004718;28;20061;-65
2021/10/08 11:10:20;;;;;;;166.35;90.93;;;20.20;74.50;;;;;;5005369;28;20034;-58
2021/10/08 11:12:47;;;;;;;165.50;88.72;;;20.20;74.50;;;;;;5004567;28;20034;-57
2021/10/08 11:15:18;;;;;;;155.00;85.93;;;20.20;74.30;;;;;;5009569;28;20018;-61
2021/10/08 11:17:55;;;;;;;158.80;86.28;;;20.20;74.50;;;;;;5008967;28;20161;-61
2021/10/08 11:20:32;;;;;;;167.45;87.45;;;20.20;74.50;;;;;;5005600;28;20022;-61
2021/10/08 11:23:03;;;;;;;154.80;84.80;;;20.20;74.50;;;;;;5004656;28;20490;-65
2021/10/08 11:25:45;;;;;;;160.98;84.07;;;20.10;74.50;;;;;;5009482;28;20453;-63
2021/10/08 11:28:16;;;;;;;142.27;76.93;;;20.20;74.50;;;;;;4989826;28;20408;-63
2021/10/08 11:30:48;;;;;;;151.43;79.47;;;20.10;74.50;;;;;;5005673;28;20057;-61
2021/10/08 11:33:16;;;;;;;159.23;83.72;;;20.10;74.30;;;;;;5004492;28;20045;-63
2021/10/08 11:35:43;;;;;;;163.38;84.80;;;20.10;74.30;;;;;;5007992;28;20465;-62
2021/10/08 11:38:11;;;;;;;155.77;81.22;;;20.10;74.20;;;;;;5007638;28;20037;-60
2021/10/08 11:40:45;;;;;;;154.27;84.72;;;20.10;74.30;;;;;;5006295;28;20049;-63
2021/10/08 11:43:36;;;;;;;150.10;81.70;;;20.10;74.10;;;;;;5010206;28;20108;-64
2021/10/08 11:46:29;;;;;;;146.55;79.03;;;20.10;74.00;;;;;;5011538;28;20113;-67
2021/10/08 11:49:02;;;;;;;149.75;77.55;;;20.10;74.00;;;;;;4989292;28;20026;-66
2021/10/08 11:51:30;;;;;;;147.30;77.28;;;20.10;74.00;;;;;;4989147;28;20380;-69
2021/10/08 11:53:57;;;;;;;142.20;77.57;;;20.10;74.20;;;;;;4892475;28;2828597;-72
2021/10/08 11:56:27;;;;;;;141.45;77.72;;;20.10;74.10;;;;;;4987607;28;20026;-65
2021/10/08 11:59:10;;;;;;;151.05;79.28;;;20.10;74.20;;;;;;5005404;28;20109;-66
2021/10/08 12:01:38;;;;;;;142.30;78.18;;;20.10;74.30;;;;;;5007270;28;20029;-63
2021/10/08 12:04:08;;;;;;;136.23;74.95;;;20.10;74.30;;;;;;5008406;28;20029;-64
2021/10/08 12:06:35;;;;;;;137.68;75.72;;;20.10;74.30;;;;;;5009296;28;20033;-63
2021/10/08 12:09:17;;;;;;;136.70;74.63;;;20.10;74.30;;;;;;5008422;28;20025;-62
2021/10/08 12:11:44;;;;;;;139.38;74.03;;;20.10;74.20;;;;;;5005661;28;20038;-61
2021/10/08 12:14:12;;;;;;;130.70;72.40;;;20.10;74.40;;;;;;5007512;28;20022;-63
2021/10/08 12:16:42;;;;;;;135.50;73.25;;;20.00;74.80;;;;;;5007545;28;20468;-63
2021/10/08 12:19:11;;;;;;;124.97;69.40;;;20.00;74.80;;;;;;5009135;28;20156;-61
2021/10/08 12:21:48;;;;;;;119.50;66.18;;;20.10;74.80;;;;;;5004759;28;20060;-63
2021/10/08 12:24:22;;;;;;;111.25;63.33;;;20.10;74.90;;;;;;5008700;28;20464;-63
2021/10/08 12:27:02;;;;;;;116.65;61.30;;;20.10;75.00;;;;;;5008566;28;20089;-61
2021/10/08 12:29:40;;;;;;;106.13;59.33;;;20.10;75.00;;;;;;5008352;28;20034;-60
2021/10/08 12:32:12;;;;;;;114.03;62.67;;;20.10;75.10;;;;;;5000728;28;20082;-62
2021/10/08 12:34:48;;;;;;;112.50;62.38;;;20.10;75.00;;;;;;4990757;28;20441;-62
2021/10/08 12:37:43;;;;;;;111.20;62.30;;;20.10;74.90;;;;;;5008248;28;20053;-62
2021/10/08 12:40:12;;;;;;;114.93;61.00;;;20.00;74.80;;;;;;5006569;28;20124;-62
2021/10/08 12:42:59;;;;;;;117.68;63.20;;;20.00;74.70;;;;;;4986621;28;20037;-62
2021/10/08 12:45:42;;;;;;;112.70;60.83;;;20.00;74.80;;;;;;5008206;28;20030;-62
2021/10/08 12:48:17;;;;;;;108.38;59.30;;;20.00;74.80;;;;;;5008166;28;20475;-63
2021/10/08 12:50:44;;;;;;;104.90;58.88;;;20.00;74.70;;;;;;5003770;28;20046;-62
2021/10/08 12:53:20;;;;;;;104.97;57.72;;;20.00;74.70;;;;;;5011295;28;20034;-61
2021/10/08 12:55:49;;;;;;;100.53;57.85;;;20.00;74.50;;;;;;5008746;28;20441;-65